createdAt,value
2018-06-16T00:00:15.854Z,97938.41
2018-06-16T00:00:47.488Z,97934.14
2018-06-16T00:01:19.060Z,97936.28
2018-06-16T00:01:50.741Z,97937.98
2018-06-16T00:02:22.308Z,97939.68
2018-06-16T00:02:53.885Z,97935.86
2018-06-16T00:03:25.485Z,97936.34
2018-06-16T00:03:57.064Z,97942.27
2018-06-16T00:04:28.666Z,97939.34
2018-06-16T00:05:00.328Z,97938.09
2018-06-16T00:05:31.904Z,97942.75
2018-06-16T00:06:03.507Z,97941.41
2018-06-16T00:06:35.114Z,97938.00
2018-06-16T00:07:06.689Z,97940.14
2018-06-16T00:07:38.260Z,97936.34
2018-06-16T00:08:09.828Z,97936.83
2018-06-16T00:08:41.409Z,97938.92
2018-06-16T00:09:13.013Z,97938.52
2018-06-16T00:09:44.617Z,97938.91
2018-06-16T00:10:16.236Z,97950.83
2018-06-16T00:10:47.832Z,97939.28
2018-06-16T00:11:19.417Z,97940.97
2018-06-16T00:11:51.021Z,97946.14
2018-06-16T00:12:22.596Z,97942.33
2018-06-16T00:12:54.206Z,97940.61
2018-06-16T00:13:25.800Z,97943.20
2018-06-16T00:13:57.450Z,97944.04
2018-06-16T00:14:29.053Z,97946.16
2018-06-16T00:15:00.661Z,97950.00
2018-06-16T00:15:32.240Z,97944.90
2018-06-16T00:16:03.812Z,97940.23
2018-06-16T00:16:35.390Z,97944.45
2018-06-16T00:17:06.974Z,97946.16
2018-06-16T00:17:38.555Z,97950.83
2018-06-16T00:18:10.143Z,97944.44
2018-06-16T00:18:41.800Z,97943.16
2018-06-16T00:19:13.376Z,97945.67
2018-06-16T00:19:44.958Z,97944.81
2018-06-16T00:20:16.581Z,97941.89
2018-06-16T00:20:48.169Z,97940.95
2018-06-16T00:21:19.750Z,97949.86
2018-06-16T00:21:51.320Z,97945.64
2018-06-16T00:22:22.897Z,97942.61
2018-06-16T00:22:54.487Z,97949.48
2018-06-16T00:23:26.060Z,97948.63
2018-06-16T00:23:57.632Z,97950.27
2018-06-16T00:24:29.274Z,97950.70
2018-06-16T00:25:00.863Z,97949.42
2018-06-16T00:25:32.438Z,97941.34
2018-06-16T00:26:04.017Z,97949.86
2018-06-16T00:26:35.607Z,97948.20
2018-06-16T00:27:07.212Z,97944.80
2018-06-16T00:27:38.822Z,97949.48
2018-06-16T00:28:10.396Z,97943.94
2018-06-16T00:28:42.038Z,97949.48
2018-06-16T00:29:13.625Z,97946.42
2018-06-16T00:29:45.264Z,97946.85
2018-06-16T00:30:16.863Z,97943.87
2018-06-16T00:30:48.465Z,97945.17
2018-06-16T00:31:20.040Z,97942.61
2018-06-16T00:31:51.612Z,97941.34
2018-06-16T00:32:23.194Z,97939.27
2018-06-16T00:32:54.786Z,97947.30
2018-06-16T00:33:26.360Z,97949.01
2018-06-16T00:33:57.941Z,97949.00
2018-06-16T00:34:29.531Z,97944.31
2018-06-16T00:35:01.154Z,97941.33
2018-06-16T00:35:32.749Z,97936.64
2018-06-16T00:36:04.331Z,97939.64
2018-06-16T00:36:35.909Z,97940.05
2018-06-16T00:37:07.509Z,97934.94
2018-06-16T00:37:39.094Z,97935.78
2018-06-16T00:38:10.674Z,97934.52
2018-06-16T00:38:42.281Z,97934.08
2018-06-16T00:39:13.889Z,97930.25
2018-06-16T00:39:45.469Z,97938.78
2018-06-16T00:40:17.241Z,97933.24
2018-06-16T00:40:48.850Z,97930.69
2018-06-16T00:41:20.461Z,97936.64
2018-06-16T00:41:52.649Z,97937.92
2018-06-16T00:42:24.243Z,97930.73
2018-06-16T00:42:55.850Z,97935.84
2018-06-16T00:43:27.433Z,97936.64
2018-06-16T00:43:59.034Z,97934.52
2018-06-16T00:44:30.618Z,97936.70
2018-06-16T00:45:02.198Z,97935.00
2018-06-16T00:45:33.835Z,97929.88
2018-06-16T00:46:05.437Z,97931.97
2018-06-16T00:46:37.022Z,97930.23
2018-06-16T00:47:08.616Z,97933.22
2018-06-16T00:47:40.321Z,97933.23
2018-06-16T00:48:11.895Z,97929.39
2018-06-16T00:48:43.497Z,97929.81
2018-06-16T00:49:15.109Z,97930.23
2018-06-16T00:49:46.684Z,97930.25
2018-06-16T00:50:18.275Z,97924.28
2018-06-16T00:50:49.929Z,97926.89
2018-06-16T00:51:21.541Z,97926.84
2018-06-16T00:51:53.156Z,97925.56
2018-06-16T00:52:24.744Z,97927.73
2018-06-16T00:52:56.356Z,97926.41
2018-06-16T00:53:27.952Z,97927.76
2018-06-16T00:53:59.528Z,97932.80
2018-06-16T00:54:31.119Z,97925.55
2018-06-16T00:55:02.716Z,97924.27
2018-06-16T00:55:34.313Z,97929.80
2018-06-16T00:56:05.933Z,97930.23
2018-06-16T00:56:37.509Z,97925.55
2018-06-16T00:57:09.094Z,97925.06
2018-06-16T00:57:40.714Z,97927.23
2018-06-16T00:58:12.317Z,97925.11
2018-06-16T00:58:43.912Z,97923.77
2018-06-16T00:59:15.597Z,97926.81
2018-06-16T00:59:47.205Z,97925.97
2018-06-16T01:00:18.813Z,97923.42
2018-06-16T01:00:50.401Z,97926.41
2018-06-16T01:01:22.005Z,97927.31
2018-06-16T01:01:53.608Z,97924.34
2018-06-16T01:02:25.190Z,97926.47
2018-06-16T01:02:56.800Z,97923.48
2018-06-16T01:03:28.392Z,97926.47
2018-06-16T01:03:59.988Z,97924.78
2018-06-16T01:04:31.566Z,97928.20
2018-06-16T01:05:03.159Z,97922.64
2018-06-16T01:05:34.756Z,97925.19
2018-06-16T01:06:06.341Z,97925.61
2018-06-16T01:06:37.949Z,97926.89
2018-06-16T01:07:09.533Z,97919.23
2018-06-16T01:07:41.168Z,97920.06
2018-06-16T01:08:12.748Z,97920.08
2018-06-16T01:08:44.325Z,97925.61
2018-06-16T01:09:15.909Z,97916.23
2018-06-16T01:09:47.526Z,97917.53
2018-06-16T01:10:19.149Z,97918.82
2018-06-16T01:10:50.773Z,97914.13
2018-06-16T01:11:22.353Z,97913.28
2018-06-16T01:11:53.958Z,97917.16
2018-06-16T01:12:25.532Z,97915.91
2018-06-16T01:12:57.124Z,97915.47
2018-06-16T01:13:28.696Z,97913.34
2018-06-16T01:14:00.278Z,97917.55
2018-06-16T01:14:31.902Z,97919.67
2018-06-16T01:15:03.512Z,97917.59
2018-06-16T01:15:35.093Z,97914.98
2018-06-16T01:16:06.702Z,97915.39
2018-06-16T01:16:38.290Z,97917.08
2018-06-16T01:17:09.956Z,97918.80
2018-06-16T01:17:41.525Z,97919.64
2018-06-16T01:18:13.094Z,97914.95
2018-06-16T01:18:44.697Z,97918.73
2018-06-16T01:19:16.292Z,97914.53
2018-06-16T01:19:47.936Z,97915.81
2018-06-16T01:20:19.531Z,97909.41
2018-06-16T01:20:51.129Z,97909.36
2018-06-16T01:21:22.780Z,97918.28
2018-06-16T01:21:54.368Z,97921.64
2018-06-16T01:22:25.955Z,97911.47
2018-06-16T01:22:57.541Z,97912.32
2018-06-16T01:23:29.146Z,97906.38
2018-06-16T01:24:00.753Z,97911.91
2018-06-16T01:24:32.361Z,97910.20
2018-06-16T01:25:03.998Z,97913.18
2018-06-16T01:25:35.611Z,97908.48
2018-06-16T01:26:07.204Z,97911.05
2018-06-16T01:26:38.808Z,97909.78
2018-06-16T01:27:10.408Z,97908.44
2018-06-16T01:27:41.993Z,97912.76
2018-06-16T01:28:13.574Z,97913.17
2018-06-16T01:28:45.177Z,97909.34
2018-06-16T01:29:16.786Z,97904.23
2018-06-16T01:29:48.425Z,97903.80
2018-06-16T01:30:20.015Z,97908.06
2018-06-16T01:30:51.646Z,97901.69
2018-06-16T01:31:23.231Z,97908.08
2018-06-16T01:31:54.812Z,97910.64
2018-06-16T01:32:26.412Z,97905.11
2018-06-16T01:32:58.021Z,97903.39
2018-06-16T01:33:29.696Z,97904.23
2018-06-16T01:34:01.278Z,97904.67
2018-06-16T01:34:32.848Z,97906.80
2018-06-16T01:35:04.430Z,97901.70
2018-06-16T01:35:36.034Z,97907.71
2018-06-16T01:36:07.604Z,97903.02
2018-06-16T01:36:39.208Z,97899.14
2018-06-16T01:37:10.806Z,97897.00
2018-06-16T01:37:42.408Z,97897.00
2018-06-16T01:38:13.989Z,97898.70
2018-06-16T01:38:45.569Z,97901.31
2018-06-16T01:39:17.193Z,97898.33
2018-06-16T01:39:48.794Z,97897.91
2018-06-16T01:40:20.423Z,97903.83
2018-06-16T01:40:52.029Z,97900.47
2018-06-16T01:41:23.614Z,97900.89
2018-06-16T01:41:55.193Z,97895.78
2018-06-16T01:42:26.807Z,97901.73
2018-06-16T01:42:58.384Z,97896.20
2018-06-16T01:43:30.996Z,97895.34
2018-06-16T01:44:02.610Z,97899.99
2018-06-16T01:44:34.242Z,97896.63
2018-06-16T01:45:05.869Z,97896.14
2018-06-16T01:45:37.451Z,97898.70
2018-06-16T01:46:09.059Z,97901.67
2018-06-16T01:46:40.669Z,97897.40
2018-06-16T01:47:12.281Z,97903.33
2018-06-16T01:47:43.881Z,97899.48
2018-06-16T01:48:15.466Z,97902.95
2018-06-16T01:48:47.060Z,97903.39
2018-06-16T01:49:18.647Z,97899.13
2018-06-16T01:49:50.230Z,97902.97
2018-06-16T01:50:21.824Z,97899.61
2018-06-16T01:50:53.425Z,97896.58
2018-06-16T01:51:25.074Z,97902.55
2018-06-16T01:51:56.677Z,97896.58
2018-06-16T01:52:28.287Z,97900.88
2018-06-16T01:52:59.897Z,97897.05
2018-06-16T01:53:31.506Z,97897.91
2018-06-16T01:54:03.090Z,97901.61
2018-06-16T01:54:34.677Z,97899.95
2018-06-16T01:55:06.321Z,97897.84
2018-06-16T01:55:37.897Z,97899.55
2018-06-16T01:56:09.539Z,97898.69
2018-06-16T01:56:41.141Z,97898.68
2018-06-16T01:57:12.722Z,97901.23
2018-06-16T01:57:44.292Z,97895.30
2018-06-16T01:58:15.884Z,97903.38
2018-06-16T01:58:47.467Z,97898.69
2018-06-16T01:59:19.057Z,97903.80
2018-06-16T01:59:50.682Z,97902.12
2018-06-16T02:00:22.276Z,97902.55
2018-06-16T02:00:53.852Z,97901.25
2018-06-16T02:01:25.420Z,97902.09
2018-06-16T02:01:57.025Z,97904.59
2018-06-16T02:02:28.685Z,97902.94
2018-06-16T02:03:00.266Z,97901.67
2018-06-16T02:03:31.860Z,97900.39
2018-06-16T02:04:03.465Z,97900.41
2018-06-16T02:04:35.073Z,97903.38
2018-06-16T02:05:06.657Z,97902.11
2018-06-16T02:05:38.241Z,97898.34
2018-06-16T02:06:09.829Z,97902.12
2018-06-16T02:06:41.435Z,97899.99
2018-06-16T02:07:13.026Z,97902.52
2018-06-16T02:07:44.669Z,97904.23
2018-06-16T02:08:16.274Z,97902.96
2018-06-16T02:08:47.977Z,97899.19
2018-06-16T02:09:19.642Z,97900.46
2018-06-16T02:09:51.543Z,97898.70
2018-06-16T02:10:23.152Z,97896.98
2018-06-16T02:10:54.757Z,97891.81
2018-06-16T02:11:26.345Z,97900.41
2018-06-16T02:11:57.925Z,97897.40
2018-06-16T02:12:29.529Z,97893.98
2018-06-16T02:13:01.109Z,97883.09
2018-06-16T02:13:32.689Z,97894.84
2018-06-16T02:14:04.313Z,97896.91
2018-06-16T02:14:35.880Z,97893.52
2018-06-16T02:15:07.458Z,97896.50
2018-06-16T02:15:39.066Z,97890.52
2018-06-16T02:16:10.658Z,97896.91
2018-06-16T02:16:42.225Z,97896.06
2018-06-16T02:17:13.834Z,97897.33
2018-06-16T02:17:45.485Z,97888.88
2018-06-16T02:18:17.066Z,97898.17
2018-06-16T02:18:48.665Z,97887.52
2018-06-16T02:19:20.313Z,97893.50
2018-06-16T02:19:51.898Z,97891.78
2018-06-16T02:20:23.514Z,97891.31
2018-06-16T02:20:55.092Z,97893.88
2018-06-16T02:21:26.674Z,97883.99
2018-06-16T02:21:58.278Z,97891.58
2018-06-16T02:22:29.890Z,97888.22
2018-06-16T02:23:01.502Z,97892.05
2018-06-16T02:23:33.109Z,97890.35
2018-06-16T02:24:04.703Z,97891.58
2018-06-16T02:24:36.365Z,97876.45
2018-06-16T02:25:07.940Z,97891.99
2018-06-16T02:25:39.512Z,97891.55
2018-06-16T02:26:11.091Z,97886.47
2018-06-16T02:26:42.679Z,97889.08
2018-06-16T02:27:14.289Z,97886.52
2018-06-16T02:27:45.874Z,97885.73
2018-06-16T02:28:17.483Z,97887.80
2018-06-16T02:28:49.065Z,97889.06
2018-06-16T02:29:20.677Z,97890.73
2018-06-16T02:29:52.329Z,97889.88
2018-06-16T02:30:23.941Z,97892.91
2018-06-16T02:30:55.553Z,97889.06
2018-06-16T02:31:27.142Z,97888.23
2018-06-16T02:31:58.831Z,97890.80
2018-06-16T02:32:30.431Z,97890.80
2018-06-16T02:33:02.028Z,97889.50
2018-06-16T02:33:33.642Z,97889.50
2018-06-16T02:34:05.226Z,97891.20
2018-06-16T02:34:37.005Z,97888.23
2018-06-16T02:35:08.609Z,97890.80
2018-06-16T02:35:40.257Z,97887.89
2018-06-16T02:36:11.829Z,97894.69
2018-06-16T02:36:43.403Z,97889.60
2018-06-16T02:37:15.006Z,97893.86
2018-06-16T02:37:46.613Z,97888.75
2018-06-16T02:38:18.228Z,97887.52
2018-06-16T02:38:49.829Z,97896.43
2018-06-16T02:39:21.408Z,97889.60
2018-06-16T02:39:53.033Z,97883.20
2018-06-16T02:40:24.637Z,97886.20
2018-06-16T02:40:56.226Z,97883.75
2018-06-16T02:41:27.833Z,97882.42
2018-06-16T02:41:59.426Z,97886.67
2018-06-16T02:42:31.002Z,97886.66
2018-06-16T02:43:02.602Z,97889.17
2018-06-16T02:43:34.214Z,97886.17
2018-06-16T02:44:05.818Z,97884.50
2018-06-16T02:44:37.396Z,97890.89
2018-06-16T02:45:09.006Z,97882.41
2018-06-16T02:45:40.594Z,97885.39
2018-06-16T02:46:12.178Z,97881.55
2018-06-16T02:46:43.764Z,97880.66
2018-06-16T02:47:15.345Z,97881.55
2018-06-16T02:47:46.938Z,97882.36
2018-06-16T02:48:18.532Z,97884.98
2018-06-16T02:48:50.130Z,97884.92
2018-06-16T02:49:21.718Z,97882.83
2018-06-16T02:49:53.288Z,97884.98
2018-06-16T02:50:25.009Z,97881.94
2018-06-16T02:50:56.574Z,97880.73
2018-06-16T02:51:28.163Z,97878.59
2018-06-16T02:51:59.736Z,97881.50
2018-06-16T02:52:31.343Z,97881.13
2018-06-16T02:53:02.957Z,97880.64
2018-06-16T02:53:34.543Z,97880.64
2018-06-16T02:54:06.193Z,97884.06
2018-06-16T02:54:37.797Z,97879.38
2018-06-16T02:55:09.405Z,97881.56
2018-06-16T02:55:40.990Z,97877.73
2018-06-16T02:56:12.598Z,97878.58
2018-06-16T02:56:44.253Z,97879.03
2018-06-16T02:57:15.837Z,97878.64
2018-06-16T02:57:47.418Z,97875.61
2018-06-16T02:58:19.002Z,97879.02
2018-06-16T02:58:50.576Z,97874.33
2018-06-16T02:59:22.200Z,97873.05
2018-06-16T02:59:53.778Z,97875.18
2018-06-16T03:00:25.345Z,97879.84
2018-06-16T03:00:56.975Z,97874.69
2018-06-16T03:01:28.553Z,97870.84
2018-06-16T03:02:00.125Z,97875.55
2018-06-16T03:02:31.710Z,97875.59
2018-06-16T03:03:03.281Z,97872.17
2018-06-16T03:03:34.852Z,97874.76
2018-06-16T03:04:06.439Z,97878.16
2018-06-16T03:04:38.026Z,97872.19
2018-06-16T03:05:09.625Z,97878.58
2018-06-16T03:05:41.250Z,97874.33
2018-06-16T03:06:12.841Z,97878.17
2018-06-16T03:06:44.418Z,97871.33
2018-06-16T03:07:16.002Z,97870.92
2018-06-16T03:07:47.576Z,97872.17
2018-06-16T03:08:19.181Z,97869.20
2018-06-16T03:08:50.770Z,97870.47
2018-06-16T03:09:22.362Z,97871.75
2018-06-16T03:09:54.018Z,97876.44
2018-06-16T03:10:25.614Z,97874.74
2018-06-16T03:10:57.190Z,97873.05
2018-06-16T03:11:28.788Z,97874.69
2018-06-16T03:12:00.457Z,97872.98
2018-06-16T03:12:32.029Z,97870.05
2018-06-16T03:13:03.617Z,97857.94
2018-06-16T03:13:35.211Z,97870.50
2018-06-16T03:14:06.795Z,97873.87
2018-06-16T03:14:38.401Z,97867.50
2018-06-16T03:15:10.064Z,97868.77
2018-06-16T03:15:41.648Z,97867.94
2018-06-16T03:16:13.218Z,97869.20
2018-06-16T03:16:44.825Z,97876.08
2018-06-16T03:17:16.413Z,97873.03
2018-06-16T03:17:48.032Z,97872.98
2018-06-16T03:18:19.641Z,97873.03
2018-06-16T03:18:51.235Z,97868.77
2018-06-16T03:19:22.832Z,97874.73
2018-06-16T03:19:54.417Z,97874.73
2018-06-16T03:20:26.025Z,97870.06
2018-06-16T03:20:57.665Z,97872.63
2018-06-16T03:21:29.269Z,97872.98
2018-06-16T03:22:00.885Z,97870.04
2018-06-16T03:22:32.489Z,97864.52
2018-06-16T03:23:04.099Z,97872.64
2018-06-16T03:23:35.704Z,97870.50
2018-06-16T03:24:07.345Z,97866.24
2018-06-16T03:24:38.956Z,97868.42
2018-06-16T03:25:10.561Z,97872.64
2018-06-16T03:25:42.170Z,97869.20
2018-06-16T03:26:13.781Z,97870.91
2018-06-16T03:26:45.366Z,97871.34
2018-06-16T03:27:16.932Z,97871.33
2018-06-16T03:27:48.533Z,97874.69
2018-06-16T03:28:20.138Z,97872.59
2018-06-16T03:28:51.955Z,97876.83
2018-06-16T03:29:23.566Z,97872.97
2018-06-16T03:29:55.176Z,97870.84
2018-06-16T03:30:26.769Z,97879.38
2018-06-16T03:30:58.497Z,97872.17
2018-06-16T03:31:30.110Z,97872.53
2018-06-16T03:32:01.699Z,97872.97
2018-06-16T03:32:33.340Z,97867.00
2018-06-16T03:33:04.926Z,97867.50
2018-06-16T03:33:36.596Z,97869.56
2018-06-16T03:34:08.173Z,97872.59
2018-06-16T03:34:39.782Z,97866.16
2018-06-16T03:35:11.374Z,97871.27
2018-06-16T03:35:42.948Z,97871.70
2018-06-16T03:36:14.565Z,97871.69
2018-06-16T03:36:46.145Z,97874.73
2018-06-16T03:37:17.739Z,97865.36
2018-06-16T03:37:49.336Z,97871.77
2018-06-16T03:38:20.925Z,97868.35
2018-06-16T03:38:52.511Z,97870.84
2018-06-16T03:39:24.108Z,97870.47
2018-06-16T03:39:55.718Z,97873.87
2018-06-16T03:40:27.297Z,97870.43
2018-06-16T03:40:58.891Z,97875.11
2018-06-16T03:41:30.488Z,97875.55
2018-06-16T03:42:02.074Z,97874.25
2018-06-16T03:42:33.693Z,97871.70
2018-06-16T03:43:05.326Z,97871.27
2018-06-16T03:43:36.910Z,97876.39
2018-06-16T03:44:08.489Z,97873.80
2018-06-16T03:44:40.090Z,97876.78
2018-06-16T03:45:11.684Z,97875.09
2018-06-16T03:45:43.274Z,97874.69
2018-06-16T03:46:14.858Z,97875.16
2018-06-16T03:46:46.454Z,97874.31
2018-06-16T03:47:18.063Z,97870.92
2018-06-16T03:47:49.670Z,97873.91
2018-06-16T03:48:21.244Z,97875.18
2018-06-16T03:48:52.821Z,97876.87
2018-06-16T03:49:24.469Z,97874.31
2018-06-16T03:49:56.118Z,97878.53
2018-06-16T03:50:27.729Z,97878.53
2018-06-16T03:50:59.314Z,97879.44
2018-06-16T03:51:30.884Z,97874.74
2018-06-16T03:52:02.486Z,97879.42
2018-06-16T03:52:34.093Z,97880.70
2018-06-16T03:53:05.706Z,97878.53
2018-06-16T03:53:37.309Z,97879.42
2018-06-16T03:54:08.893Z,97878.17
2018-06-16T03:54:40.466Z,97879.92
2018-06-16T03:55:12.070Z,97879.03
2018-06-16T03:55:43.667Z,97880.31
2018-06-16T03:56:15.240Z,97879.92
2018-06-16T03:56:46.820Z,97882.83
2018-06-16T03:57:18.388Z,97875.44
2018-06-16T03:57:49.993Z,97878.42
2018-06-16T03:58:21.574Z,97878.36
2018-06-16T03:58:53.649Z,97883.09
2018-06-16T03:59:25.250Z,97883.13
2018-06-16T03:59:56.823Z,97882.76
2018-06-16T04:00:28.407Z,97882.76
2018-06-16T04:01:00.040Z,97884.03
2018-06-16T04:01:31.649Z,97881.08
2018-06-16T04:02:03.237Z,97879.80
2018-06-16T04:02:34.832Z,97882.34
2018-06-16T04:03:06.445Z,97883.61
2018-06-16T04:03:38.056Z,97884.06
2018-06-16T04:04:09.673Z,97883.64
2018-06-16T04:04:41.277Z,97887.53
2018-06-16T04:05:12.862Z,97883.28
2018-06-16T04:05:44.524Z,97882.84
2018-06-16T04:06:16.202Z,97879.45
2018-06-16T04:06:47.792Z,97881.59
2018-06-16T04:07:19.372Z,97885.05
2018-06-16T04:07:50.953Z,97876.96
2018-06-16T04:08:22.530Z,97882.08
2018-06-16T04:08:54.100Z,97879.14
2018-06-16T04:09:25.717Z,97880.81
2018-06-16T04:09:57.289Z,97879.09
2018-06-16T04:10:28.889Z,97877.44
2018-06-16T04:11:00.478Z,97880.86
2018-06-16T04:11:32.123Z,97882.98
2018-06-16T04:12:03.734Z,97876.17
2018-06-16T04:12:35.346Z,97879.17
2018-06-16T04:13:06.964Z,97883.84
2018-06-16T04:13:38.578Z,97879.59
2018-06-16T04:14:10.164Z,97878.75
2018-06-16T04:14:41.769Z,97881.30
2018-06-16T04:15:13.364Z,97884.28
2018-06-16T04:15:44.946Z,97881.30
2018-06-16T04:16:16.516Z,97878.33
2018-06-16T04:16:48.109Z,97886.00
2018-06-16T04:17:19.713Z,97878.76
2018-06-16T04:17:51.302Z,97878.81
2018-06-16T04:18:22.933Z,97876.69
2018-06-16T04:18:54.580Z,97876.19
2018-06-16T04:19:26.176Z,97885.14
2018-06-16T04:19:57.790Z,97885.14
2018-06-16T04:20:29.370Z,97883.00
2018-06-16T04:21:00.953Z,97883.84
2018-06-16T04:21:32.575Z,97885.55
2018-06-16T04:22:04.177Z,97882.99
2018-06-16T04:22:35.761Z,97880.87
2018-06-16T04:23:07.377Z,97880.44
2018-06-16T04:23:39.057Z,97882.13
2018-06-16T04:24:10.662Z,97881.28
2018-06-16T04:24:42.260Z,97883.79
2018-06-16T04:25:13.832Z,97878.66
2018-06-16T04:25:45.434Z,97881.21
2018-06-16T04:26:17.021Z,97886.33
2018-06-16T04:26:48.589Z,97880.35
2018-06-16T04:27:20.173Z,97883.78
2018-06-16T04:27:51.744Z,97885.49
2018-06-16T04:28:23.365Z,97880.38
2018-06-16T04:28:54.957Z,97884.65
2018-06-16T04:29:26.584Z,97884.26
2018-06-16T04:29:58.165Z,97888.54
2018-06-16T04:30:29.769Z,97887.62
2018-06-16T04:31:01.375Z,97891.51
2018-06-16T04:31:33.012Z,97888.09
2018-06-16T04:32:04.603Z,97890.23
2018-06-16T04:32:36.210Z,97887.19
2018-06-16T04:33:07.823Z,97885.91
2018-06-16T04:33:39.535Z,97887.19
2018-06-16T04:34:11.128Z,97891.88
2018-06-16T04:34:42.741Z,97894.00
2018-06-16T04:35:14.382Z,97895.71
2018-06-16T04:35:45.965Z,97897.84
2018-06-16T04:36:17.532Z,97885.97
2018-06-16T04:36:49.118Z,97896.16
2018-06-16T04:37:20.712Z,97882.56
2018-06-16T04:37:52.307Z,97892.37
2018-06-16T04:38:23.946Z,97892.37
2018-06-16T04:38:55.533Z,97885.97
2018-06-16T04:39:27.100Z,97892.37
2018-06-16T04:39:58.706Z,97889.81
2018-06-16T04:40:30.330Z,97888.17
2018-06-16T04:41:01.920Z,97890.19
2018-06-16T04:41:33.500Z,97889.73
2018-06-16T04:42:05.110Z,97890.54
2018-06-16T04:42:36.697Z,97890.95
2018-06-16T04:43:08.287Z,97893.20
2018-06-16T04:43:39.932Z,97889.31
2018-06-16T04:44:11.500Z,97891.46
2018-06-16T04:44:43.101Z,97891.46
2018-06-16T04:45:14.697Z,97886.76
2018-06-16T04:45:46.366Z,97886.77
2018-06-16T04:46:17.934Z,97894.42
2018-06-16T04:46:49.518Z,97898.69
2018-06-16T04:47:21.113Z,97890.17
2018-06-16T04:47:52.702Z,97891.03
2018-06-16T04:48:24.301Z,97897.05
2018-06-16T04:48:55.905Z,97891.46
2018-06-16T04:49:27.513Z,97891.05
2018-06-16T04:49:59.121Z,97896.58
2018-06-16T04:50:30.777Z,97891.51
2018-06-16T04:51:02.433Z,97892.79
2018-06-16T04:51:34.084Z,97912.83
2018-06-16T04:52:05.679Z,97895.38
2018-06-16T04:52:37.275Z,97894.08
2018-06-16T04:53:08.848Z,97893.66
2018-06-16T04:53:40.510Z,97894.52
2018-06-16T04:54:12.103Z,97890.66
2018-06-16T04:54:43.690Z,97891.11
2018-06-16T04:55:15.259Z,97893.23
2018-06-16T04:55:46.867Z,97892.37
2018-06-16T04:56:18.464Z,97894.50
2018-06-16T04:56:50.070Z,97893.16
2018-06-16T04:57:21.654Z,97889.37
2018-06-16T04:57:53.227Z,97894.48
2018-06-16T04:58:24.809Z,97889.75
2018-06-16T04:58:56.400Z,97893.59
2018-06-16T04:59:27.995Z,97896.14
2018-06-16T04:59:59.568Z,97896.98
2018-06-16T05:00:31.227Z,97892.28
2018-06-16T05:01:02.808Z,97890.53
2018-06-16T05:01:34.389Z,97890.95
2018-06-16T05:02:05.988Z,97890.59
2018-06-16T05:02:37.560Z,97888.47
2018-06-16T05:03:09.127Z,97891.45
2018-06-16T05:03:40.709Z,97888.88
2018-06-16T05:04:12.313Z,97885.49
2018-06-16T05:04:43.925Z,97889.73
2018-06-16T05:05:15.540Z,97896.56
2018-06-16T05:05:47.179Z,97890.16
2018-06-16T05:06:18.785Z,97891.88
2018-06-16T05:06:50.381Z,97888.89
2018-06-16T05:07:21.986Z,97889.73
2018-06-16T05:07:53.574Z,97891.02
2018-06-16T05:08:25.182Z,97896.56
2018-06-16T05:08:56.819Z,97885.56
2018-06-16T05:09:28.434Z,97894.85
2018-06-16T05:10:00.023Z,97894.80
2018-06-16T05:10:31.637Z,97894.36
2018-06-16T05:11:03.286Z,97898.27
2018-06-16T05:11:34.894Z,97893.94
2018-06-16T05:12:06.477Z,97898.20
2018-06-16T05:12:38.056Z,97896.01
2018-06-16T05:13:09.665Z,97895.15
2018-06-16T05:13:41.277Z,97896.89
2018-06-16T05:14:12.923Z,97902.45
2018-06-16T05:14:44.524Z,97897.34
2018-06-16T05:15:16.134Z,97902.02
2018-06-16T05:15:47.790Z,97898.69
2018-06-16T05:16:19.397Z,97899.89
2018-06-16T05:16:51.011Z,97898.63
2018-06-16T05:17:22.600Z,97900.32
2018-06-16T05:17:54.204Z,97898.64
2018-06-16T05:18:25.790Z,97899.53
2018-06-16T05:18:57.397Z,97898.68
2018-06-16T05:19:28.968Z,97896.98
2018-06-16T05:20:00.549Z,97897.83
2018-06-16T05:20:32.139Z,97901.70
2018-06-16T05:21:03.766Z,97902.54
2018-06-16T05:21:35.393Z,97902.52
2018-06-16T05:22:06.997Z,97898.64
2018-06-16T05:22:38.613Z,97904.59
2018-06-16T05:23:10.222Z,97900.81
2018-06-16T05:23:41.824Z,97906.77
2018-06-16T05:24:13.399Z,97902.52
2018-06-16T05:24:45.008Z,97900.38
2018-06-16T05:25:16.626Z,97902.95
2018-06-16T05:25:48.217Z,97902.52
2018-06-16T05:26:19.814Z,97902.52
2018-06-16T05:26:51.390Z,97902.95
2018-06-16T05:27:22.978Z,97905.49
2018-06-16T05:27:54.585Z,97901.61
2018-06-16T05:28:26.208Z,97902.47
2018-06-16T05:28:57.817Z,97907.08
2018-06-16T05:29:29.421Z,97899.91
2018-06-16T05:30:01.025Z,97904.14
2018-06-16T05:30:32.629Z,97913.46
2018-06-16T05:31:04.232Z,97906.22
2018-06-16T05:31:35.841Z,97905.79
2018-06-16T05:32:07.417Z,97905.79
2018-06-16T05:32:38.988Z,97904.09
2018-06-16T05:33:10.570Z,97904.08
2018-06-16T05:33:42.178Z,97901.52
2018-06-16T05:34:13.761Z,97905.80
2018-06-16T05:34:45.345Z,97909.64
2018-06-16T05:35:16.950Z,97906.23
2018-06-16T05:35:48.581Z,97907.98
2018-06-16T05:36:20.148Z,97910.55
2018-06-16T05:36:51.723Z,97907.56
2018-06-16T05:37:23.302Z,97905.00
2018-06-16T05:37:54.881Z,97905.00
2018-06-16T05:38:26.466Z,97907.52
2018-06-16T05:38:58.037Z,97906.28
2018-06-16T05:39:29.617Z,97905.03
2018-06-16T05:40:01.219Z,97905.08
2018-06-16T05:40:32.820Z,97907.20
2018-06-16T05:41:04.409Z,97906.78
2018-06-16T05:41:35.990Z,97905.49
2018-06-16T05:42:07.612Z,97905.49
2018-06-16T05:42:39.204Z,97907.59
2018-06-16T05:43:10.794Z,97908.86
2018-06-16T05:43:42.374Z,97904.59
2018-06-16T05:44:13.950Z,97904.14
2018-06-16T05:44:45.537Z,97902.88
2018-06-16T05:45:17.150Z,97906.23
2018-06-16T05:45:48.728Z,97902.94
2018-06-16T05:46:20.310Z,97902.45
2018-06-16T05:46:51.953Z,97905.87
2018-06-16T05:47:23.556Z,97910.14
2018-06-16T05:47:55.146Z,97908.85
2018-06-16T05:48:26.729Z,97908.85
2018-06-16T05:48:59.084Z,97907.15
2018-06-16T05:49:30.854Z,97912.69
2018-06-16T05:50:12.701Z,97906.80
2018-06-16T05:50:44.305Z,97910.14
2018-06-16T05:51:15.917Z,97908.42
2018-06-16T05:51:47.521Z,97908.42
2018-06-16T05:52:19.150Z,97911.42
2018-06-16T05:52:50.747Z,97913.97
2018-06-16T05:53:22.352Z,97911.00
2018-06-16T05:53:53.955Z,97910.61
2018-06-16T05:54:25.630Z,97912.28
2018-06-16T05:54:57.210Z,97910.98
2018-06-16T05:55:39.209Z,97908.84
2018-06-16T05:56:10.790Z,97916.89
2018-06-16T05:56:42.995Z,97916.03
2018-06-16T05:57:14.777Z,97912.19
2018-06-16T05:57:46.414Z,97912.63
2018-06-16T05:58:18.013Z,97912.13
2018-06-16T05:58:49.956Z,97914.67
2018-06-16T05:59:21.566Z,97917.25
2018-06-16T05:59:53.169Z,97910.05
2018-06-16T06:00:24.823Z,97919.79
2018-06-16T06:00:56.389Z,97910.41
2018-06-16T06:01:27.993Z,97910.85
2018-06-16T06:01:59.605Z,97915.95
2018-06-16T06:02:31.180Z,97909.99
2018-06-16T06:03:02.802Z,97915.95
2018-06-16T06:03:34.384Z,97913.45
2018-06-16T06:04:05.962Z,97914.74
2018-06-16T06:04:37.609Z,97913.03
2018-06-16T06:05:09.196Z,97914.30
2018-06-16T06:05:40.776Z,97916.81
2018-06-16T06:06:12.347Z,97916.80
2018-06-16T06:06:43.961Z,97917.66
2018-06-16T06:07:15.569Z,97914.23
2018-06-16T06:07:47.153Z,97915.00
2018-06-16T06:08:18.748Z,97920.73
2018-06-16T06:08:50.357Z,97923.50
2018-06-16T06:09:21.968Z,97919.69
2018-06-16T06:09:53.537Z,97915.97
2018-06-16T06:10:25.155Z,97921.16
2018-06-16T06:10:56.744Z,97916.07
2018-06-16T06:11:28.325Z,97916.98